Time;durP1;ratioP1;P1;durP2;ratioP2;P2;SDS_P1;SDS_P2;PMS_P1;PMS_P2;Temp;Humidity;BMP_temperature;BMP_pressure;BME280_temperature;BME280_humidity;BME280_pressure;Samples;Min_cycle;Max_cycle;Signal;HPM_P1;HPM_P2
2021/12/08 00:01:58;;;;;;;51.37;36.83;;;13.80;67.60;;;;;;5188644;28;20451;-31
2021/12/08 00:04:29;;;;;;;50.73;36.53;;;13.70;67.10;;;;;;5171289;28;20061;-31
2021/12/08 00:07:02;;;;;;;43.60;31.10;;;13.80;67.60;;;;;;5170518;28;20522;-30
2021/12/08 00:15:02;;;;;;;110.60;72.37;;;13.80;67.10;;;;;;5188443;28;20049;-30
2021/12/08 00:17:33;;;;;;;67.03;46.33;;;13.80;67.10;;;;;;5188284;28;20041;-30
2021/12/08 00:20:04;;;;;;;68.67;47.23;;;13.70;67.10;;;;;;5188259;28;20099;-30
2021/12/08 00:22:35;;;;;;;65.00;45.53;;;13.70;66.80;;;;;;5188537;28;20049;-30
2021/12/08 00:25:07;;;;;;;55.97;39.43;;;13.70;66.80;;;;;;5188301;28;20099;-30
2021/12/08 00:27:37;;;;;;;74.47;50.70;;;13.70;66.80;;;;;;5188137;28;20046;-30
2021/12/08 00:30:09;;;;;;;58.57;42.27;;;13.70;66.80;;;;;;5187040;28;20509;-30
2021/12/08 00:32:40;;;;;;;38.40;28.93;;;13.70;66.70;;;;;;5187938;28;20132;-33
2021/12/08 00:35:11;;;;;;;60.97;42.90;;;13.70;66.40;;;;;;5188278;28;20116;-30
2021/12/08 00:37:42;;;;;;;56.57;39.50;;;13.70;66.50;;;;;;5187320;28;20547;-30
2021/12/08 00:40:15;;;;;;;55.63;39.17;;;13.70;66.30;;;;;;5187706;28;20095;-31
2021/12/08 00:42:46;;;;;;;54.58;39.60;;;13.70;66.30;;;;;;5186810;28;20046;-33
2021/12/08 00:45:17;;;;;;;41.87;30.97;;;13.70;66.20;;;;;;5187212;28;20064;-30
2021/12/08 00:47:49;;;;;;;54.13;35.93;;;13.70;66.00;;;;;;5186898;28;20125;-32
2021/12/08 00:50:22;;;;;;;48.57;34.23;;;13.70;65.90;;;;;;5187579;28;20125;-29
2021/12/08 00:52:54;;;;;;;;;;;13.70;65.80;;;;;;5188450;28;20528;-34
2021/12/08 00:55:25;;;;;;;39.50;28.73;;;13.70;65.70;;;;;;5186836;28;19956;-33
2021/12/08 00:57:56;;;;;;;48.10;33.80;;;13.60;65.50;;;;;;5187121;28;20045;-32
2021/12/08 01:00:36;;;;;;;44.17;33.93;;;13.60;65.60;;;;;;5187313;28;20061;-30
2021/12/08 01:03:07;;;;;;;47.20;36.47;;;13.60;65.60;;;;;;5186980;28;20046;-30
2021/12/08 01:05:42;;;;;;;50.70;39.13;;;13.60;65.60;;;;;;5187263;28;20074;-31
2021/12/08 01:08:13;;;;;;;46.57;36.10;;;13.60;65.60;;;;;;5187680;28;20161;-30
2021/12/08 01:10:45;;;;;;;46.63;36.00;;;13.60;65.60;;;;;;5185928;28;20052;-30
2021/12/08 01:13:16;;;;;;;39.40;31.90;;;13.70;65.60;;;;;;5186528;28;20053;-31
2021/12/08 01:15:50;;;;;;;34.60;27.10;;;13.70;65.60;;;;;;5187075;28;20042;-30
2021/12/08 01:18:21;;;;;;;47.87;36.97;;;13.60;65.40;;;;;;5186013;28;20077;-30
2021/12/08 01:20:53;;;;;;;41.17;32.53;;;13.60;65.40;;;;;;5185796;28;20068;-31
2021/12/08 01:23:25;;;;;;;35.87;27.03;;;13.60;65.40;;;;;;5186980;28;20045;-32
2021/12/08 01:25:56;;;;;;;49.57;37.07;;;13.60;65.20;;;;;;5185954;28;20464;-30
2021/12/08 01:28:28;;;;;;;39.57;30.40;;;13.60;65.40;;;;;;5186252;28;20073;-30
2021/12/08 01:31:00;;;;;;;39.87;31.30;;;13.60;65.50;;;;;;5185866;28;20046;-30
2021/12/08 01:33:33;;;;;;;38.10;29.33;;;13.60;65.40;;;;;;5186080;28;20582;-30
2021/12/08 01:36:05;;;;;;;38.42;28.70;;;13.60;65.50;;;;;;5187736;28;20061;-30
2021/12/08 01:38:36;;;;;;;33.67;26.87;;;13.60;65.40;;;;;;5186914;28;20050;-31
2021/12/08 01:41:07;;;;;;;37.40;29.70;;;13.60;65.30;;;;;;5186988;28;20065;-33
2021/12/08 01:46:28;;;;;;;30.57;23.37;;;13.60;65.20;;;;;;5186583;28;20056;-31
2021/12/08 01:48:59;;;;;;;30.60;23.70;;;13.60;65.40;;;;;;5187641;28;20535;-33
2021/12/08 01:51:31;;;;;;;35.70;27.23;;;13.60;65.40;;;;;;5186926;28;20068;-30
2021/12/08 01:54:02;;;;;;;36.50;29.00;;;13.60;65.40;;;;;;5185882;28;20042;-30
2021/12/08 01:56:34;;;;;;;32.63;26.60;;;13.60;65.30;;;;;;5186823;28;20044;-30
2021/12/08 01:59:06;;;;;;;42.07;31.40;;;13.60;65.40;;;;;;5169501;28;20050;-33
2021/12/08 02:01:40;;;;;;;40.90;29.53;;;13.50;65.70;;;;;;5186637;28;20121;-30
2021/12/08 02:04:11;;;;;;;40.80;30.40;;;13.50;66.10;;;;;;5187111;28;20042;-30
2021/12/08 02:06:44;;;;;;;37.70;28.17;;;13.50;66.90;;;;;;5186623;28;20045;-31
2021/12/08 02:09:15;;;;;;;36.37;27.93;;;13.50;66.60;;;;;;5186159;28;20141;-31
2021/12/08 02:11:48;;;;;;;31.53;24.53;;;13.50;66.60;;;;;;5186764;28;20563;-30
2021/12/08 02:14:19;;;;;;;28.87;23.00;;;13.50;66.20;;;;;;5186690;28;20038;-31
2021/12/08 02:16:51;;;;;;;33.43;25.13;;;13.50;65.90;;;;;;5186354;28;20117;-31
2021/12/08 02:19:22;;;;;;;30.50;22.27;;;13.50;65.90;;;;;;5185448;28;20065;-32
2021/12/08 02:21:54;;;;;;;46.57;33.37;;;13.60;65.90;;;;;;5186136;28;20131;-30
2021/12/08 02:24:24;;;;;;;50.23;35.03;;;13.60;65.80;;;;;;5190253;28;20065;-30
2021/12/08 02:26:58;;;;;;;40.07;28.97;;;13.60;65.70;;;;;;5190509;28;20165;-30
2021/12/08 02:29:54;;;;;;;38.13;28.25;;;13.60;65.80;;;;;;5173178;28;20136;-30
2021/12/08 02:48:58;;;;;;;25.70;19.90;;;13.50;65.30;;;;;;5190362;28;20494;-29
2021/12/08 02:51:29;;;;;;;25.47;19.93;;;13.50;65.20;;;;;;5190351;28;20042;-31
2021/12/08 02:54:00;;;;;;;29.77;23.20;;;13.50;65.30;;;;;;5188826;28;20084;-34
2021/12/08 02:56:31;;;;;;;30.57;25.37;;;13.50;65.30;;;;;;5190166;28;20081;-33
2021/12/08 02:59:03;;;;;;;30.97;24.03;;;13.50;65.20;;;;;;5190099;28;20121;-30
2021/12/08 03:01:34;;;;;;;26.83;21.23;;;13.50;65.10;;;;;;5171890;28;20380;-30
2021/12/08 03:04:05;;;;;;;26.50;21.00;;;13.50;65.80;;;;;;5188832;28;20061;-30
2021/12/08 03:06:38;;;;;;;25.70;21.23;;;13.50;65.30;;;;;;5190046;28;20057;-31
2021/12/08 03:09:09;;;;;;;26.30;20.48;;;13.50;65.30;;;;;;5189646;28;20133;-30
2021/12/08 03:11:40;;;;;;;23.13;19.23;;;13.50;65.50;;;;;;5155723;28;20058;-33
2021/12/08 03:14:12;;;;;;;24.63;19.07;;;13.50;65.10;;;;;;5189642;28;20080;-31
2021/12/08 03:16:50;;;;;;;24.50;18.27;;;13.50;65.20;;;;;;5189653;28;20472;-30
2021/12/08 03:19:22;;;;;;;27.53;20.20;;;13.50;65.10;;;;;;5189504;28;20046;-30
2021/12/08 03:21:54;;;;;;;26.33;20.33;;;13.40;64.90;;;;;;5189582;28;20476;-30
2021/12/08 03:24:33;;;;;;;24.73;19.77;;;13.50;65.00;;;;;;5188188;28;20515;-33
2021/12/08 03:27:20;;;;;;;26.17;20.10;;;13.40;65.20;;;;;;5190010;28;20065;-33
2021/12/08 03:29:57;;;;;;;27.00;21.30;;;13.40;65.00;;;;;;5188852;28;20042;-34
2021/12/08 03:32:34;;;;;;;23.43;18.93;;;13.50;65.10;;;;;;5188517;28;20392;-31
2021/12/08 03:35:08;;;;;;;25.70;20.37;;;13.40;64.90;;;;;;5186878;28;20084;-32
2021/12/08 03:37:41;;;;;;;27.33;21.17;;;13.40;65.00;;;;;;5188160;28;20085;-30
2021/12/08 03:40:18;;;;;;;;;;;13.50;65.20;;;;;;5189488;28;20181;-32
2021/12/08 03:42:51;;;;;;;26.90;20.63;;;13.40;64.80;;;;;;5189113;28;20008;-33
2021/12/08 03:45:32;;;;;;;28.90;22.58;;;13.40;65.00;;;;;;5187696;28;20403;-31
2021/12/08 03:48:06;;;;;;;27.93;21.80;;;13.40;64.90;;;;;;5188330;28;20060;-33
2021/12/08 03:50:39;;;;;;;28.27;22.33;;;13.40;64.90;;;;;;5188527;28;20384;-32
2021/12/08 03:53:12;;;;;;;27.45;21.60;;;13.50;65.10;;;;;;5189190;28;20053;-31
2021/12/08 03:55:45;;;;;;;27.27;21.47;;;13.50;64.90;;;;;;5188100;28;20078;-31
2021/12/08 03:58:15;;;;;;;25.67;21.20;;;13.40;65.10;;;;;;5204217;28;20144;-30
2021/12/08 04:00:47;;;;;;;27.97;22.80;;;13.40;64.70;;;;;;5171281;28;20054;-30
2021/12/08 04:03:19;;;;;;;29.27;22.40;;;13.50;64.90;;;;;;5188554;28;20042;-33
2021/12/08 04:05:56;;;;;;;26.53;20.97;;;13.40;64.90;;;;;;5171966;28;20052;-31
2021/12/08 04:08:39;;;;;;;27.47;21.27;;;13.40;64.90;;;;;;5188651;28;20518;-32
2021/12/08 04:11:11;;;;;;;27.15;21.02;;;13.40;64.80;;;;;;5187632;28;20071;-30
2021/12/08 04:13:52;;;;;;;28.50;22.13;;;13.40;64.80;;;;;;5188392;28;20045;-30
2021/12/08 04:16:27;;;;;;;27.20;22.23;;;13.50;64.80;;;;;;5188661;28;20046;-31
2021/12/08 04:18:58;;;;;;;28.93;21.23;;;13.40;64.80;;;;;;5188305;28;20046;-31
2021/12/08 04:21:30;;;;;;;28.07;21.10;;;13.40;64.80;;;;;;5187719;28;20219;-31
2021/12/08 04:24:00;;;;;;;27.70;21.90;;;13.40;64.80;;;;;;5188208;28;20076;-33
2021/12/08 04:26:41;;;;;;;27.70;21.10;;;13.40;64.60;;;;;;5188832;28;20046;-29
2021/12/08 04:29:12;;;;;;;27.80;21.93;;;13.40;64.80;;;;;;5172017;28;20065;-30
2021/12/08 04:31:44;;;;;;;28.07;22.47;;;13.40;64.80;;;;;;5187782;28;20065;-30
2021/12/08 04:34:25;;;;;;;26.07;20.03;;;13.40;64.90;;;;;;5170138;28;20535;-30
2021/12/08 04:37:00;;;;;;;26.87;21.50;;;13.40;64.60;;;;;;5187175;28;20116;-30
2021/12/08 04:39:46;;;;;;;27.70;22.43;;;13.40;64.60;;;;;;5188383;28;20052;-30
2021/12/08 04:42:25;;;;;;;28.67;22.37;;;13.40;64.70;;;;;;5188096;28;20401;-30
2021/12/08 04:45:05;;;;;;;28.23;21.83;;;13.40;65.00;;;;;;5187446;28;20061;-32
2021/12/08 04:47:48;;;;;;;27.70;21.23;;;13.40;66.30;;;;;;5188706;28;20431;-31
2021/12/08 04:53:07;;;;;;;25.27;20.27;;;13.40;65.80;;;;;;5187727;28;20068;-30
2021/12/08 05:09:50;;;;;;;30.80;23.87;;;13.50;64.90;;;;;;5165054;28;20519;-30
2021/12/08 05:12:29;;;;;;;30.83;24.43;;;13.40;64.80;;;;;;5164778;28;20133;-30
2021/12/08 05:15:08;;;;;;;30.27;24.10;;;13.50;65.00;;;;;;5164926;28;20082;-31
2021/12/08 05:17:42;;;;;;;28.30;23.23;;;13.40;64.80;;;;;;5165065;28;20493;-34
2021/12/08 05:20:19;;;;;;;29.87;23.17;;;13.50;65.00;;;;;;5164683;28;20057;-32
2021/12/08 05:22:56;;;;;;;147.03;94.40;;;13.40;65.10;;;;;;5164889;28;20061;-32
2021/12/08 05:25:28;;;;;;;127.40;74.03;;;13.50;65.10;;;;;;5165196;28;20054;-32
2021/12/08 05:28:01;;;;;;;70.70;38.97;;;13.40;65.20;;;;;;5164639;28;20046;-30
2021/12/08 05:30:42;;;;;;;43.15;27.70;;;13.50;65.30;;;;;;5185727;28;20050;-31
2021/12/08 05:33:14;;;;;;;48.17;26.87;;;13.50;65.20;;;;;;5185808;28;20408;-30
2021/12/08 05:35:45;;;;;;;41.03;25.13;;;13.40;65.20;;;;;;5186167;28;20068;-30
2021/12/08 05:38:16;;;;;;;40.50;26.70;;;13.50;65.20;;;;;;5169804;28;20494;-33
2021/12/08 05:40:49;;;;;;;39.50;27.17;;;13.40;65.70;;;;;;5186970;28;20050;-31
2021/12/08 05:43:21;;;;;;;43.13;29.35;;;13.40;65.70;;;;;;5187223;28;20120;-33
2021/12/08 05:45:52;;;;;;;50.20;36.40;;;13.40;65.50;;;;;;5169262;28;20085;-30
2021/12/08 05:48:23;;;;;;;46.47;32.60;;;13.40;65.70;;;;;;5186886;28;20068;-30
2021/12/08 05:51:07;;;;;;;40.33;31.87;;;13.40;65.50;;;;;;5187139;28;20099;-30
2021/12/08 05:53:39;;;;;;;46.80;36.87;;;13.40;65.60;;;;;;5185693;28;20084;-34
2021/12/08 05:56:10;;;;;;;44.38;33.22;;;13.30;65.60;;;;;;5185921;28;20128;-33
2021/12/08 05:58:41;;;;;;;45.23;34.43;;;13.30;65.50;;;;;;5166891;28;20137;-31
2021/12/08 06:01:20;;;;;;;37.47;29.50;;;13.30;65.80;;;;;;5179451;28;20050;-30
2021/12/08 06:03:51;;;;;;;68.47;47.50;;;13.30;65.60;;;;;;5151817;28;20417;-31
2021/12/08 06:06:23;;;;;;;84.37;55.20;;;13.30;65.60;;;;;;5168120;28;20050;-31
2021/12/08 06:08:54;;;;;;;59.03;38.07;;;13.30;65.80;;;;;;5168484;28;20058;-30
2021/12/08 06:11:26;;;;;;;70.20;44.80;;;13.30;65.60;;;;;;5152092;28;20121;-30
2021/12/08 06:13:59;;;;;;;92.45;58.40;;;13.40;65.80;;;;;;5152177;28;20054;-31
2021/12/08 06:16:31;;;;;;;;;;;13.40;65.70;;;;;;5137414;28;20177;-33
2021/12/08 06:19:03;;;;;;;61.87;41.57;;;13.40;65.80;;;;;;5168147;28;19999;-32
2021/12/08 06:21:34;;;;;;;70.40;47.53;;;13.40;65.70;;;;;;5135960;28;20050;-31
2021/12/08 06:24:06;;;;;;;75.57;54.77;;;13.40;65.60;;;;;;5151831;28;20065;-32
2021/12/08 06:26:37;;;;;;;63.53;43.60;;;13.30;65.60;;;;;;5168009;28;20046;-32
2021/12/08 06:29:11;;;;;;;87.53;63.30;;;13.40;65.60;;;;;;5174788;28;20526;-32
2021/12/08 06:31:42;;;;;;;56.97;39.70;;;13.30;65.50;;;;;;5173254;28;20046;-30
2021/12/08 06:34:13;;;;;;;38.27;28.97;;;13.40;65.70;;;;;;5189490;28;20045;-31
2021/12/08 06:36:53;;;;;;;55.50;39.90;;;13.40;66.00;;;;;;5190424;28;20046;-31
2021/12/08 06:39:42;;;;;;;49.07;35.13;;;13.50;66.20;;;;;;5190784;28;20468;-32
2021/12/08 06:42:18;;;;;;;80.90;56.13;;;13.60;65.70;;;;;;5190621;28;20448;-28
2021/12/08 06:44:57;;;;;;;62.37;45.00;;;13.70;65.50;;;;;;5188350;28;20072;-31
2021/12/08 06:47:35;;;;;;;124.33;83.53;;;13.80;65.40;;;;;;5173121;28;20050;-30
2021/12/08 06:50:17;;;;;;;44.63;33.07;;;13.90;65.20;;;;;;5172961;28;20046;-31
2021/12/08 06:52:48;;;;;;;46.03;34.67;;;14.00;64.80;;;;;;5190478;28;20411;-29
2021/12/08 06:55:24;;;;;;;44.23;31.53;;;13.40;64.20;;;;;;5189152;28;20053;-31
2021/12/08 06:57:58;;;;;;;86.50;56.67;;;11.30;67.50;;;;;;5189525;28;20041;-28
2021/12/08 07:00:50;;;;;;;48.93;32.03;;;10.00;70.20;;;;;;5188266;28;20104;-31
2021/12/08 07:06:12;;;;;;;80.33;48.83;;;8.90;72.50;;;;;;5187816;28;20096;-31
2021/12/08 07:08:45;;;;;;;;;;;8.70;73.40;;;;;;5187307;28;20518;-30
2021/12/08 07:11:17;;;;;;;71.68;46.30;;;8.50;73.80;;;;;;5187866;28;20282;-29
2021/12/08 07:13:50;;;;;;;57.85;36.70;;;8.40;73.90;;;;;;5186413;28;20054;-32
2021/12/08 07:16:25;;;;;;;42.63;27.90;;;8.20;74.10;;;;;;5188332;28;20399;-30
2021/12/08 07:19:08;;;;;;;49.67;32.33;;;8.10;74.10;;;;;;5187730;28;20464;-31
2021/12/08 07:22:01;;;;;;;61.83;37.65;;;8.00;74.50;;;;;;5190108;28;20073;-32
2021/12/08 07:24:37;;;;;;;58.77;36.77;;;7.90;74.70;;;;;;5188488;28;20121;-30
2021/12/08 07:27:11;;;;;;;42.73;29.00;;;7.90;75.10;;;;;;5188388;28;20121;-30
2021/12/08 07:29:46;;;;;;;57.47;37.13;;;7.80;74.40;;;;;;5189608;28;20045;-31
2021/12/08 07:32:26;;;;;;;67.50;43.10;;;7.70;75.00;;;;;;5171970;28;20438;-30
2021/12/08 07:34:59;;;;;;;43.00;30.77;;;7.70;75.30;;;;;;5187583;28;20092;-31
2021/12/08 07:37:32;;;;;;;76.38;47.05;;;7.70;76.00;;;;;;5172515;28;20050;-28
2021/12/08 07:40:12;;;;;;;65.25;41.83;;;7.60;75.60;;;;;;5188100;28;20499;-30
2021/12/08 07:42:59;;;;;;;59.83;38.67;;;7.60;75.30;;;;;;5187711;28;20053;-29
2021/12/08 07:45:37;;;;;;;64.77;41.47;;;7.60;75.20;;;;;;5187985;28;20062;-31
2021/12/08 07:48:09;;;;;;;58.80;38.80;;;7.50;75.90;;;;;;5187744;28;20088;-31
2021/12/08 07:50:50;;;;;;;47.70;33.13;;;7.50;75.70;;;;;;5187811;28;20133;-30
2021/12/08 07:53:23;;;;;;;70.97;43.90;;;7.50;75.70;;;;;;5188167;28;20049;-29
2021/12/08 07:56:00;;;;;;;41.00;28.63;;;7.50;75.90;;;;;;5188735;28;20459;-28
2021/12/08 07:58:33;;;;;;;52.80;35.90;;;7.40;75.30;;;;;;5188758;28;20073;-28
2021/12/08 08:01:16;;;;;;;63.17;41.22;;;7.40;75.70;;;;;;5187618;28;20049;-29
2021/12/08 08:03:47;;;;;;;73.82;47.55;;;7.30;76.00;;;;;;5188674;28;20508;-31
2021/12/08 08:06:23;;;;;;;63.93;42.17;;;7.30;75.90;;;;;;5187176;28;20406;-32
2021/12/08 08:08:54;;;;;;;61.60;42.40;;;7.80;76.40;;;;;;5189096;28;20038;-30
2021/12/08 08:11:33;;;;;;;53.73;37.00;;;8.70;75.10;;;;;;5188791;28;20072;-29
2021/12/08 08:14:04;;;;;;;48.10;35.30;;;9.50;73.70;;;;;;5187890;28;20038;-32
2021/12/08 08:16:36;;;;;;;51.07;35.30;;;10.10;71.70;;;;;;5187282;28;20068;-32
2021/12/08 08:19:13;;;;;;;44.70;32.83;;;10.60;70.70;;;;;;5187403;28;20065;-29
2021/12/08 08:21:49;;;;;;;43.70;32.03;;;11.00;69.70;;;;;;5187579;28;20053;-32
2021/12/08 08:24:23;;;;;;;45.07;33.23;;;11.30;68.90;;;;;;5186704;28;20054;-32
2021/12/08 08:26:56;;;;;;;;;;;11.60;68.20;;;;;;5188835;28;20477;-29
2021/12/08 08:29:27;;;;;;;51.40;38.78;;;11.80;67.70;;;;;;5203392;28;20398;-28
2021/12/08 08:32:01;;;;;;;32.40;26.93;;;12.00;68.40;;;;;;5188061;28;20046;-30
2021/12/08 08:34:36;;;;;;;40.53;30.33;;;12.10;67.30;;;;;;5188665;28;20042;-32
2021/12/08 08:37:09;;;;;;;41.97;31.87;;;12.20;67.00;;;;;;5187159;28;20447;-29
2021/12/08 08:39:45;;;;;;;41.42;32.00;;;12.30;67.30;;;;;;5186846;28;20156;-30
2021/12/08 08:42:25;;;;;;;43.10;31.10;;;12.30;67.10;;;;;;5186674;28;20054;-31
2021/12/08 08:45:05;;;;;;;40.90;32.53;;;12.40;66.50;;;;;;5188104;28;20078;-32
2021/12/08 08:47:44;;;;;;;37.30;29.00;;;12.50;66.50;;;;;;5187467;28;20467;-32
2021/12/08 08:50:50;;;;;;;39.73;30.17;;;12.50;66.10;;;;;;5187932;28;20085;-29
2021/12/08 08:53:22;;;;;;;34.37;28.63;;;12.60;66.10;;;;;;5187654;28;20054;-30
2021/12/08 08:55:59;;;;;;;44.40;34.93;;;12.70;66.10;;;;;;5187968;28;20044;-30
2021/12/08 08:58:31;;;;;;;38.60;32.53;;;12.80;66.20;;;;;;5186706;28;20050;-33
2021/12/08 09:01:12;;;;;;;38.67;31.10;;;12.90;66.00;;;;;;5186451;28;20049;-30
2021/12/08 09:03:51;;;;;;;35.37;28.17;;;13.00;65.80;;;;;;5187946;28;20164;-32
2021/12/08 09:06:26;;;;;;;38.87;30.57;;;13.10;65.60;;;;;;5186998;28;20481;-31
2021/12/08 09:08:57;;;;;;;37.27;30.00;;;13.20;65.50;;;;;;5186505;28;20428;-33
2021/12/08 09:11:31;;;;;;;30.70;26.07;;;13.20;65.30;;;;;;5170029;28;20069;-30
2021/12/08 09:14:09;;;;;;;36.67;29.67;;;13.30;65.20;;;;;;5170475;28;20088;-29
2021/12/08 09:16:43;;;;;;;33.87;27.57;;;13.40;65.20;;;;;;5187554;28;20057;-31
2021/12/08 09:19:23;;;;;;;33.23;28.30;;;13.40;64.90;;;;;;5186079;28;20049;-31
2021/12/08 09:22:06;;;;;;;39.80;32.13;;;13.40;64.80;;;;;;5187348;28;20492;-31
2021/12/08 09:24:46;;;;;;;34.03;28.63;;;13.40;64.80;;;;;;5187440;28;20487;-31
2021/12/08 09:27:21;;;;;;;34.63;28.87;;;13.40;64.90;;;;;;5186148;28;20496;-33
2021/12/08 09:29:57;;;;;;;31.03;27.63;;;13.40;64.90;;;;;;5186476;28;20065;-30
2021/12/08 09:32:36;;;;;;;29.63;25.47;;;13.40;64.90;;;;;;5187079;28;20437;-30
2021/12/08 09:35:50;;;;;;;32.83;26.77;;;13.30;64.50;;;;;;5186383;28;20052;-31
2021/12/08 09:38:39;;;;;;;35.40;30.00;;;13.40;64.70;;;;;;5164460;28;20440;-28
2021/12/08 09:41:18;;;;;;;32.72;28.90;;;13.40;64.60;;;;;;5148847;28;20073;-30
2021/12/08 09:43:51;;;;;;;30.57;26.57;;;13.40;64.50;;;;;;5132205;28;20050;-30
2021/12/08 09:46:25;;;;;;;32.57;28.03;;;13.50;64.50;;;;;;5132079;28;20055;-32
2021/12/08 09:48:59;;;;;;;33.83;28.23;;;13.50;64.60;;;;;;5116990;28;20068;-30
2021/12/08 09:51:30;;;;;;;28.27;25.03;;;13.50;64.50;;;;;;5164476;28;20060;-29
2021/12/08 09:54:01;;;;;;;31.70;26.33;;;13.50;64.80;;;;;;5148189;28;20519;-32
2021/12/08 09:56:33;;;;;;;30.53;26.20;;;13.50;64.30;;;;;;5164499;28;20104;-30
2021/12/08 09:59:05;;;;;;;34.00;26.40;;;13.50;64.30;;;;;;5164230;28;20125;-32
2021/12/08 10:01:38;;;;;;;28.77;23.97;;;13.50;64.20;;;;;;5148147;28;20058;-29
2021/12/08 10:04:10;;;;;;;30.42;24.55;;;13.50;64.10;;;;;;5148250;28;20050;-31
2021/12/08 10:06:49;;;;;;;28.20;23.53;;;13.50;63.90;;;;;;5164214;28;20128;-29
2021/12/08 10:09:20;;;;;;;29.23;24.60;;;13.50;63.80;;;;;;5148750;28;20058;-32
2021/12/08 10:11:54;;;;;;;30.63;25.67;;;13.50;63.80;;;;;;5148630;28;20053;-32
2021/12/08 10:14:25;;;;;;;28.97;23.90;;;13.50;63.90;;;;;;5174650;28;20058;-32
2021/12/08 10:16:56;;;;;;;29.07;23.93;;;13.50;64.00;;;;;;5185466;28;20042;-33
2021/12/08 10:19:27;;;;;;;31.07;26.13;;;13.50;63.80;;;;;;5186496;28;20069;-33
2021/12/08 10:21:59;;;;;;;30.97;26.10;;;13.50;63.90;;;;;;5184967;28;20533;-31
2021/12/08 10:24:48;;;;;;;27.53;24.10;;;13.50;64.00;;;;;;5186498;28;20053;-29
2021/12/08 10:27:25;;;;;;;29.20;25.73;;;13.40;63.80;;;;;;5143933;28;20061;-30
2021/12/08 10:30:20;;;;;;;28.07;23.87;;;13.40;64.20;;;;;;5128272;28;20058;-30
2021/12/08 10:32:53;;;;;;;25.93;23.03;;;13.40;63.50;;;;;;5084569;29;20135;-32
2021/12/08 10:36:01;;;;;;;28.20;24.33;;;13.50;63.80;;;;;;5085140;29;20116;-33
2021/12/08 10:38:36;;;;;;;27.60;23.57;;;13.50;63.60;;;;;;5084609;29;20056;-32
2021/12/08 10:41:07;;;;;;;29.27;24.03;;;13.60;63.30;;;;;;5084496;29;20044;-31
2021/12/08 10:43:39;;;;;;;29.37;24.30;;;13.70;63.10;;;;;;5085559;29;20064;-32
2021/12/08 10:46:11;;;;;;;25.73;21.50;;;13.70;62.90;;;;;;5088051;29;20135;-32
2021/12/08 10:48:45;;;;;;;30.83;25.87;;;13.70;62.90;;;;;;5056863;29;20048;-30
2021/12/08 10:54:27;;;;;;;26.27;22.23;;;13.80;62.80;;;;;;5088552;29;20052;-31
2021/12/08 10:57:00;;;;;;;30.57;25.80;;;13.80;62.80;;;;;;5072252;29;20554;-32
2021/12/08 11:00:01;;;;;;;28.35;23.88;;;13.80;62.80;;;;;;5056792;29;20059;-29
2021/12/08 11:02:58;;;;;;;26.27;22.40;;;13.80;62.90;;;;;;5071944;29;20107;-29
2021/12/08 11:05:37;;;;;;;25.37;22.37;;;13.80;62.60;;;;;;5137516;28;20050;-30
2021/12/08 11:08:16;;;;;;;27.13;21.93;;;13.80;62.70;;;;;;5131965;28;20058;-32
2021/12/08 11:10:47;;;;;;;26.27;22.63;;;13.70;62.30;;;;;;5173002;28;20132;-31
2021/12/08 11:13:21;;;;;;;26.80;22.70;;;13.70;62.40;;;;;;5189922;28;20449;-32
2021/12/08 11:16:00;;;;;;;27.53;23.27;;;13.70;62.20;;;;;;5188747;28;20085;-31
2021/12/08 11:18:31;;;;;;;27.93;23.30;;;13.70;62.40;;;;;;5189309;28;20046;-31
2021/12/08 11:21:06;;;;;;;29.80;24.90;;;13.70;62.50;;;;;;5189010;28;20045;-32
2021/12/08 11:23:42;;;;;;;32.17;25.10;;;13.70;62.40;;;;;;5189466;28;20381;-30
2021/12/08 11:26:22;;;;;;;31.33;26.13;;;13.70;62.30;;;;;;5189745;28;20062;-29
2021/12/08 11:29:01;;;;;;;28.63;24.67;;;13.70;62.50;;;;;;5189322;28;20038;-30
2021/12/08 11:31:32;;;;;;;30.03;25.37;;;13.70;62.50;;;;;;5189812;28;20073;-32
2021/12/08 11:34:05;;;;;;;30.93;25.57;;;13.70;62.50;;;;;;5189315;28;20076;-31
2021/12/08 11:36:38;;;;;;;28.80;25.10;;;13.70;62.70;;;;;;5188310;28;20066;-30
2021/12/08 11:39:12;;;;;;;30.57;26.50;;;13.70;62.70;;;;;;5189163;28;20505;-33
2021/12/08 11:41:45;;;;;;;27.67;24.63;;;13.70;62.30;;;;;;5189003;28;20433;-32
2021/12/08 11:44:20;;;;;;;26.42;23.13;;;13.70;62.40;;;;;;5187645;28;20073;-29
2021/12/08 11:47:01;;;;;;;32.13;26.67;;;13.80;62.40;;;;;;5189313;28;20058;-30
2021/12/08 11:49:34;;;;;;;29.37;25.33;;;13.80;62.20;;;;;;5189052;28;20054;-30
2021/12/08 11:52:19;;;;;;;26.73;23.33;;;13.90;62.70;;;;;;5188032;28;20042;-32
2021/12/08 11:55:00;;;;;;;27.50;23.20;;;13.80;61.60;;;;;;5188227;28;20107;-32
2021/12/08 11:57:36;;;;;;;25.27;22.03;;;13.70;61.50;;;;;;5187679;28;20121;-32
2021/12/08 12:00:15;;;;;;;32.60;26.13;;;13.70;61.50;;;;;;5171300;28;20042;-29
2021/12/08 12:02:56;;;;;;;42.03;33.33;;;13.70;61.70;;;;;;5188064;28;20046;-32
2021/12/08 12:05:32;;;;;;;29.57;24.80;;;13.70;61.70;;;;;;5187709;28;20049;-32
2021/12/08 12:08:05;;;;;;;27.87;23.63;;;13.60;61.30;;;;;;5188515;28;20045;-30
2021/12/08 12:10:39;;;;;;;26.85;24.02;;;13.70;61.30;;;;;;5187544;28;20100;-32
2021/12/08 12:13:11;;;;;;;25.63;21.47;;;13.70;61.40;;;;;;5189041;28;20511;-30
2021/12/08 12:15:47;;;;;;;26.67;23.47;;;13.70;61.20;;;;;;5188288;28;20041;-29
2021/12/08 12:18:22;;;;;;;28.03;23.07;;;13.70;61.00;;;;;;5188304;28;20112;-32
2021/12/08 12:21:05;;;;;;;26.83;22.73;;;13.70;60.80;;;;;;5188427;28;20057;-29
2021/12/08 12:24:21;;;;;;;27.83;22.70;;;13.70;60.90;;;;;;5172126;28;20049;-30
2021/12/08 12:27:07;;;;;;;28.92;23.08;;;13.80;60.60;;;;;;5166455;28;20060;-32
2021/12/08 12:30:10;;;;;;;27.77;24.30;;;13.70;60.70;;;;;;5149744;28;20056;-29
2021/12/08 12:32:53;;;;;;;27.10;23.47;;;13.70;60.60;;;;;;5152154;28;20057;-31
2021/12/08 12:35:32;;;;;;;28.77;22.70;;;13.70;60.70;;;;;;5149671;28;20046;-32
2021/12/08 12:38:04;;;;;;;26.97;23.87;;;13.70;61.00;;;;;;5165590;28;20133;-31
2021/12/08 12:40:57;;;;;;;28.73;23.33;;;13.70;61.10;;;;;;5149632;28;20046;-31
2021/12/08 12:43:30;;;;;;;26.27;22.13;;;13.70;61.20;;;;;;5149797;28;20105;-31
2021/12/08 12:46:12;;;;;;;27.00;23.20;;;13.60;60.90;;;;;;5149097;28;20098;-30
2021/12/08 12:48:50;;;;;;;28.60;25.17;;;13.60;60.90;;;;;;5166127;28;20088;-31
2021/12/08 12:51:26;;;;;;;32.17;26.23;;;13.60;61.00;;;;;;5150236;28;20046;-31
2021/12/08 12:53:58;;;;;;;32.17;26.07;;;13.70;60.80;;;;;;5165871;28;20445;-31
2021/12/08 12:56:29;;;;;;;32.10;25.23;;;13.70;60.70;;;;;;5165143;28;20409;-32
2021/12/08 12:59:10;;;;;;;34.70;26.70;;;13.70;60.60;;;;;;5165042;28;20481;-31
2021/12/08 13:01:46;;;;;;;29.30;24.83;;;13.80;60.50;;;;;;5165091;28;20088;-30
2021/12/08 13:04:22;;;;;;;31.53;24.67;;;13.80;60.60;;;;;;5181302;28;20069;-32
2021/12/08 13:07:15;;;;;;;45.70;35.47;;;13.70;60.40;;;;;;5172000;28;20504;-31
2021/12/08 13:09:47;;;;;;;33.37;28.00;;;13.80;60.50;;;;;;5185159;28;20072;-32
2021/12/08 13:12:24;;;;;;;30.37;26.20;;;13.70;60.30;;;;;;5185615;28;20107;-30
2021/12/08 13:15:08;;;;;;;30.60;27.07;;;13.70;60.60;;;;;;5185251;28;20567;-33
2021/12/08 13:18:01;;;;;;;30.80;25.93;;;13.70;60.60;;;;;;5184939;28;20045;-30
2021/12/08 13:20:35;;;;;;;33.42;26.83;;;13.70;60.70;;;;;;5185352;28;20505;-29
2021/12/08 13:23:17;;;;;;;27.93;23.47;;;13.80;60.90;;;;;;5184712;28;20173;-31
2021/12/08 13:26:00;;;;;;;30.30;26.10;;;13.70;60.70;;;;;;5184786;28;20516;-33
2021/12/08 13:28:55;;;;;;;30.75;25.08;;;13.80;60.70;;;;;;5185457;28;20193;-30
2021/12/08 13:31:58;;;;;;;31.73;24.50;;;13.90;60.40;;;;;;5184858;28;20550;-32
2021/12/08 13:34:32;;;;;;;30.47;26.40;;;13.90;60.10;;;;;;5184636;28;20129;-31
2021/12/08 13:40:49;;;;;;;31.60;28.17;;;13.90;60.10;;;;;;5143872;28;19981;-32
2021/12/08 13:43:35;;;;;;;46.63;33.30;;;13.90;60.30;;;;;;5144350;28;20062;-30
2021/12/08 13:46:08;;;;;;;60.77;38.43;;;13.80;60.60;;;;;;5144113;28;20086;-30
2021/12/08 13:49:09;;;;;;;66.63;47.67;;;13.80;60.80;;;;;;5112324;28;20051;-33
2021/12/08 13:51:40;;;;;;;64.77;51.13;;;13.80;60.50;;;;;;5144278;28;20053;-32
2021/12/08 13:54:28;;;;;;;46.37;37.33;;;13.80;60.70;;;;;;5112280;28;20464;-29
2021/12/08 13:57:03;;;;;;;35.97;30.00;;;13.80;60.30;;;;;;5144417;28;20066;-33
2021/12/08 13:59:53;;;;;;;34.03;28.63;;;13.80;60.60;;;;;;5128152;28;20137;-34
2021/12/08 14:02:32;;;;;;;45.83;36.43;;;13.80;60.40;;;;;;5144251;28;20051;-30
2021/12/08 14:05:30;;;;;;;40.00;33.30;;;13.70;60.60;;;;;;5144208;28;20146;-33